Time;durP1;ratioP1;P1;durP2;ratioP2;P2;SDS_P1;SDS_P2;PMS_P1;PMS_P2;Temp;Humidity;BMP_temperature;BMP_pressure;BME280_temperature;BME280_humidity;BME280_pressure;Samples;Min_cycle;Max_cycle;Signal;HPM_P1;HPM_P2
2022/07/21 00:01:29;;;;;;;10.23;8.10;;;20.50;99.90;;;;;;5019668;28;20049;-78
2022/07/21 00:03:54;;;;;;;16.83;8.40;;;20.40;99.90;;;;;;5023403;28;20044;-78
2022/07/21 00:06:20;;;;;;;14.68;8.60;;;20.40;99.90;;;;;;5021148;28;20397;-78
2022/07/21 00:08:46;;;;;;;12.43;8.63;;;20.50;99.90;;;;;;5020675;28;20085;-78
2022/07/21 00:11:12;;;;;;;13.18;8.35;;;20.40;99.90;;;;;;5017661;28;20081;-78
2022/07/21 00:13:37;;;;;;;10.93;8.55;;;20.40;99.90;;;;;;5017799;28;20030;-78
2022/07/21 00:16:04;;;;;;;13.20;8.73;;;20.30;99.90;;;;;;5022893;28;20450;-78
2022/07/21 00:18:29;;;;;;;10.05;7.80;;;20.30;99.90;;;;;;5019704;28;20041;-78
2022/07/21 00:20:56;;;;;;;15.27;8.38;;;20.30;99.90;;;;;;5019497;28;20492;-78
2022/07/21 00:23:23;;;;;;;14.77;8.95;;;20.30;99.90;;;;;;5016303;28;20427;-78
2022/07/21 00:25:50;;;;;;;13.75;8.95;;;20.30;99.90;;;;;;5010729;28;20054;-78
2022/07/21 00:28:15;;;;;;;13.90;8.90;;;20.30;99.90;;;;;;5013428;28;20407;-78
2022/07/21 00:30:41;;;;;;;11.25;8.52;;;20.30;99.90;;;;;;5021530;28;20038;-78
2022/07/21 00:33:07;;;;;;;10.80;9.35;;;20.20;99.90;;;;;;5008381;28;20645;-78
2022/07/21 00:35:32;;;;;;;15.25;8.93;;;20.20;99.90;;;;;;5007199;28;20064;-78
2022/07/21 00:37:58;;;;;;;13.27;9.23;;;20.20;99.90;;;;;;5025738;28;20041;-78
2022/07/21 00:40:24;;;;;;;14.35;9.32;;;20.20;99.90;;;;;;5021092;28;20034;-79
2022/07/21 00:42:50;;;;;;;14.27;8.38;;;20.20;99.90;;;;;;5026434;28;20033;-79
2022/07/21 00:45:16;;;;;;;12.82;9.45;;;20.20;99.90;;;;;;5023241;28;20045;-79
2022/07/21 00:47:42;;;;;;;11.60;8.38;;;20.20;99.90;;;;;;5028373;28;20120;-79
2022/07/21 00:50:11;;;;;;;16.02;9.32;;;20.10;99.90;;;;;;5020559;28;20464;-78
2022/07/21 00:52:37;;;;;;;14.23;9.40;;;20.10;99.90;;;;;;5023133;28;20467;-78
2022/07/21 00:55:05;;;;;;;19.63;10.15;;;20.10;99.90;;;;;;5026593;28;20096;-78
2022/07/21 00:57:31;;;;;;;13.48;9.38;;;20.10;99.90;;;;;;5026151;28;20093;-78
2022/07/21 00:59:56;;;;;;;13.40;9.00;;;20.10;99.90;;;;;;5018563;28;20053;-78
2022/07/21 01:02:22;;;;;;;12.77;9.35;;;20.00;99.90;;;;;;5018521;28;20497;-78
2022/07/21 01:04:48;;;;;;;15.68;10.38;;;20.00;99.90;;;;;;5031373;28;20447;-78
2022/07/21 01:07:15;;;;;;;14.00;9.00;;;20.00;99.90;;;;;;5009643;28;20053;-78
2022/07/21 01:09:41;;;;;;;15.82;10.15;;;19.90;99.90;;;;;;5018011;28;20117;-78
2022/07/21 01:12:08;;;;;;;13.75;9.85;;;19.90;99.90;;;;;;5021924;28;20052;-78
2022/07/21 01:14:33;;;;;;;16.70;10.55;;;19.90;99.90;;;;;;5020712;28;20049;-78
2022/07/21 01:17:02;;;;;;;16.17;9.43;;;19.90;99.90;;;;;;5026020;28;20044;-78
2022/07/21 01:19:28;;;;;;;11.80;10.30;;;19.90;99.90;;;;;;5029208;28;20044;-78
2022/07/21 01:21:54;;;;;;;17.27;10.43;;;19.90;99.90;;;;;;5025196;28;20065;-78
2022/07/21 01:24:20;;;;;;;13.15;10.15;;;19.80;99.90;;;;;;5027544;28;20056;-78
2022/07/21 01:26:48;;;;;;;15.88;10.23;;;19.80;99.90;;;;;;5022896;28;20042;-78
2022/07/21 01:29:15;;;;;;;16.40;10.48;;;19.80;99.90;;;;;;5016952;28;20059;-78
2022/07/21 01:31:44;;;;;;;17.08;10.77;;;19.90;99.90;;;;;;5022280;28;20041;-78
2022/07/21 01:34:10;;;;;;;12.13;9.57;;;19.80;99.90;;;;;;5013659;28;20137;-78
2022/07/21 01:36:36;;;;;;;15.13;9.32;;;19.80;99.90;;;;;;5008443;28;20045;-78
2022/07/21 01:41:47;;;;;;;12.93;9.30;;;19.90;99.90;;;;;;5015251;28;20073;-79
2022/07/21 01:44:13;;;;;;;13.98;10.25;;;19.80;99.90;;;;;;5015247;28;20041;-78
2022/07/21 01:46:45;;;;;;;15.32;10.70;;;19.80;99.90;;;;;;5027342;28;20053;-78
2022/07/21 01:49:12;;;;;;;14.23;10.50;;;19.80;99.90;;;;;;5025499;28;20034;-79
2022/07/21 01:51:38;;;;;;;15.38;11.77;;;19.80;99.90;;;;;;5024896;28;20084;-78
2022/07/21 01:54:06;;;;;;;15.73;10.45;;;19.80;99.90;;;;;;5015750;28;20119;-79
2022/07/21 01:56:33;;;;;;;14.55;11.13;;;19.80;99.90;;;;;;5021735;28;20519;-78
2022/07/21 01:58:58;;;;;;;16.50;11.02;;;19.80;99.90;;;;;;5003084;28;20135;-78
2022/07/21 02:01:26;;;;;;;15.02;10.82;;;19.70;99.90;;;;;;5022300;28;20084;-78
2022/07/21 02:03:53;;;;;;;16.17;10.85;;;19.70;99.90;;;;;;5021512;28;20455;-78
2022/07/21 02:06:19;;;;;;;19.63;10.68;;;19.70;99.90;;;;;;5007991;28;20081;-79
2022/07/21 02:08:45;;;;;;;16.35;11.55;;;19.70;99.90;;;;;;5020597;28;20158;-79
2022/07/21 02:11:13;;;;;;;15.15;10.93;;;19.70;99.90;;;;;;5007165;28;20038;-78
2022/07/21 02:13:39;;;;;;;16.52;11.02;;;19.60;99.90;;;;;;5005015;28;20846;-79
2022/07/21 02:16:05;;;;;;;13.70;11.85;;;19.60;99.90;;;;;;5027553;28;20045;-79
2022/07/21 02:18:31;;;;;;;16.25;11.38;;;19.50;99.90;;;;;;5001111;28;20124;-79
2022/07/21 02:20:57;;;;;;;14.00;10.38;;;19.50;99.90;;;;;;5009436;28;20100;-78
2022/07/21 02:23:24;;;;;;;14.05;10.45;;;19.50;99.90;;;;;;5023394;28;20496;-78
2022/07/21 02:25:51;;;;;;;14.35;11.25;;;19.50;99.90;;;;;;5028032;28;20081;-79
2022/07/21 02:28:18;;;;;;;17.50;12.38;;;19.60;99.90;;;;;;5007685;28;20053;-79
2022/07/21 02:30:45;;;;;;;16.42;12.40;;;19.50;99.90;;;;;;5025270;28;20049;-79
2022/07/21 02:33:10;;;;;;;15.52;11.60;;;19.50;99.90;;;;;;5015872;28;20091;-78
2022/07/21 02:35:36;;;;;;;14.05;10.52;;;19.50;99.90;;;;;;5029954;28;20041;-78
2022/07/21 02:38:02;;;;;;;13.80;10.40;;;19.50;99.90;;;;;;5023181;28;20192;-78
2022/07/21 02:40:28;;;;;;;13.45;11.93;;;19.50;99.90;;;;;;5019723;28;20964;-78
2022/07/21 02:42:54;;;;;;;15.95;11.38;;;19.50;99.90;;;;;;5007922;28;20109;-78
2022/07/21 02:45:19;;;;;;;16.73;11.63;;;19.50;99.90;;;;;;5024944;28;20132;-78
2022/07/21 02:47:54;;;;;;;16.33;11.80;;;19.60;99.90;;;;;;5012307;28;20092;-78
2022/07/21 02:50:21;;;;;;;15.80;12.73;;;19.50;99.90;;;;;;5008826;28;20474;-78
2022/07/21 02:52:47;;;;;;;13.63;11.27;;;19.60;99.90;;;;;;5009550;28;20263;-78
2022/07/21 02:55:12;;;;;;;14.32;11.55;;;19.50;99.90;;;;;;5025912;28;20067;-79
2022/07/21 02:57:38;;;;;;;13.55;11.43;;;19.60;99.90;;;;;;5006607;28;20045;-78
2022/07/21 03:00:07;;;;;;;13.98;11.40;;;19.50;99.90;;;;;;5023232;28;20033;-78
2022/07/21 03:02:33;;;;;;;13.82;10.98;;;19.60;99.90;;;;;;5027268;28;20033;-79
2022/07/21 03:04:59;;;;;;;15.35;11.27;;;19.50;99.90;;;;;;5013495;28;20053;-79
2022/07/21 03:07:24;;;;;;;15.48;11.82;;;19.50;99.90;;;;;;5022284;28;20037;-79
2022/07/21 03:09:50;;;;;;;14.07;10.30;;;19.60;99.90;;;;;;5019397;28;20034;-79
2022/07/21 03:12:15;;;;;;;14.60;11.07;;;19.60;99.90;;;;;;5024017;28;20187;-79
2022/07/21 03:14:41;;;;;;;13.90;10.68;;;19.60;99.90;;;;;;5012844;28;20045;-79
2022/07/21 03:17:06;;;;;;;14.43;11.40;;;19.50;99.90;;;;;;5020884;28;20403;-79
2022/07/21 03:19:32;;;;;;;11.95;10.75;;;19.50;99.90;;;;;;4995199;28;20048;-79
2022/07/21 03:21:58;;;;;;;13.02;11.68;;;19.50;99.90;;;;;;5020770;28;20080;-79
2022/07/21 03:24:23;;;;;;;14.07;11.32;;;19.50;99.90;;;;;;5020624;28;20042;-79
2022/07/21 03:26:49;;;;;;;13.45;12.15;;;19.50;99.90;;;;;;5014842;28;20484;-79
2022/07/21 03:29:14;;;;;;;13.25;11.60;;;19.60;99.90;;;;;;5025654;28;20049;-79
2022/07/21 03:31:40;;;;;;;16.10;13.68;;;19.50;99.90;;;;;;5010225;28;20074;-79
2022/07/21 03:34:06;;;;;;;15.43;12.13;;;19.50;99.90;;;;;;5029072;28;20538;-79
2022/07/21 03:36:31;;;;;;;13.88;12.57;;;19.60;99.90;;;;;;5028014;28;20046;-79
2022/07/21 03:38:57;;;;;;;13.43;12.02;;;19.60;99.90;;;;;;5025991;28;20045;-79
2022/07/21 03:41:22;;;;;;;15.20;12.07;;;19.50;99.90;;;;;;5022884;28;20038;-79
2022/07/21 03:43:48;;;;;;;13.68;12.18;;;19.60;99.90;;;;;;5031131;28;20042;-79
2022/07/21 03:46:14;;;;;;;15.32;13.77;;;19.50;99.90;;;;;;5019634;28;20046;-79
2022/07/21 03:48:40;;;;;;;14.88;13.38;;;19.60;99.90;;;;;;5029814;28;20654;-79
2022/07/21 03:51:06;;;;;;;16.20;14.57;;;19.50;99.90;;;;;;5027819;28;20065;-79
2022/07/21 03:53:32;;;;;;;16.58;14.95;;;19.60;99.90;;;;;;5027612;28;20056;-79
2022/07/21 03:55:57;;;;;;;15.60;14.13;;;19.60;99.90;;;;;;5020779;28;20130;-80
2022/07/21 03:58:23;;;;;;;16.23;14.77;;;19.60;99.90;;;;;;5028973;28;20066;-79
2022/07/21 04:00:48;;;;;;;16.45;14.85;;;19.60;99.90;;;;;;5025831;28;20038;-79
2022/07/21 04:03:14;;;;;;;16.98;15.38;;;19.60;99.90;;;;;;5029913;28;20038;-79
2022/07/21 04:05:40;;;;;;;17.90;16.23;;;19.70;99.90;;;;;;5017542;28;20049;-78
2022/07/21 04:08:08;;;;;;;18.55;16.50;;;19.70;99.90;;;;;;5022786;28;20546;-79
2022/07/21 04:10:35;;;;;;;22.80;20.23;;;19.60;99.90;;;;;;5027234;28;20676;-79
2022/07/21 04:13:04;;;;;;;26.95;20.45;;;19.60;99.90;;;;;;5013175;28;20049;-79
2022/07/21 04:15:30;;;;;;;21.20;18.77;;;19.70;99.90;;;;;;5025048;28;20149;-79
2022/07/21 04:17:56;;;;;;;22.35;20.33;;;19.60;99.90;;;;;;5027433;28;20069;-79
2022/07/21 04:20:22;;;;;;;24.25;21.70;;;19.70;99.90;;;;;;5028313;28;20042;-79
2022/07/21 04:22:49;;;;;;;24.08;21.80;;;19.60;99.90;;;;;;5023991;28;20046;-79
2022/07/21 04:25:16;;;;;;;23.15;20.70;;;19.70;99.90;;;;;;5028111;28;20099;-79
2022/07/21 04:27:42;;;;;;;23.23;21.08;;;19.70;99.90;;;;;;5026941;28;20144;-79
2022/07/21 04:30:10;;;;;;;25.88;23.42;;;19.70;99.90;;;;;;5012030;28;20042;-79
2022/07/21 04:32:36;;;;;;;24.50;22.10;;;19.70;99.90;;;;;;5019113;28;20045;-79
2022/07/21 04:35:03;;;;;;;26.63;24.33;;;19.70;99.90;;;;;;5028432;28;20038;-79
2022/07/21 04:37:29;;;;;;;27.95;25.30;;;19.60;99.90;;;;;;5025614;28;20322;-79
2022/07/21 04:39:55;;;;;;;27.98;25.15;;;19.70;99.90;;;;;;5026778;28;20052;-79
2022/07/21 04:42:20;;;;;;;28.80;26.10;;;19.70;99.90;;;;;;5027385;28;20045;-78
2022/07/21 04:44:46;;;;;;;30.52;27.15;;;19.70;99.90;;;;;;5015043;28;20049;-79
2022/07/21 04:47:11;;;;;;;30.08;27.30;;;19.80;99.90;;;;;;5023199;28;20048;-79
2022/07/21 04:49:37;;;;;;;29.23;26.35;;;19.80;99.90;;;;;;5022393;28;20404;-79
2022/07/21 04:52:03;;;;;;;29.08;26.38;;;19.80;99.90;;;;;;5022881;28;20037;-79
2022/07/21 04:54:28;;;;;;;30.30;27.27;;;19.80;99.90;;;;;;5014815;28;20077;-79
2022/07/21 04:56:55;;;;;;;29.95;26.92;;;19.80;99.90;;;;;;5021033;28;20042;-80
2022/07/21 04:59:20;;;;;;;29.20;26.30;;;19.80;99.90;;;;;;5012530;28;20048;-79
2022/07/21 05:01:46;;;;;;;27.90;25.33;;;19.90;99.90;;;;;;5004878;28;20492;-79
2022/07/21 05:04:12;;;;;;;28.23;25.42;;;20.10;99.90;;;;;;5020824;28;20049;-79
2022/07/21 05:06:37;;;;;;;28.38;25.67;;;19.80;99.90;;;;;;5013055;28;20068;-79
2022/07/21 05:09:03;;;;;;;26.40;23.88;;;19.80;99.90;;;;;;5019934;28;20046;-78
2022/07/21 05:11:29;;;;;;;29.65;26.60;;;19.80;99.90;;;;;;5021824;28;20042;-79
2022/07/21 05:13:55;;;;;;;28.60;25.65;;;19.90;99.90;;;;;;4989062;28;20067;-79
2022/07/21 05:16:21;;;;;;;27.70;24.80;;;19.90;99.90;;;;;;5013069;28;20523;-79
2022/07/21 05:18:47;;;;;;;28.15;25.45;;;20.00;99.90;;;;;;5025173;28;20487;-79
2022/07/21 05:21:12;;;;;;;28.08;25.17;;;20.00;99.90;;;;;;5003463;28;20049;-79
2022/07/21 05:23:38;;;;;;;28.13;25.33;;;20.10;99.90;;;;;;5008537;28;20478;-79
2022/07/21 05:26:03;;;;;;;27.83;25.13;;;20.20;99.90;;;;;;5021846;28;20041;-78
2022/07/21 05:28:30;;;;;;;28.25;25.60;;;20.20;99.90;;;;;;5018296;28;20045;-78
2022/07/21 05:30:55;;;;;;;29.50;26.52;;;20.20;99.90;;;;;;5011651;28;20049;-78
2022/07/21 05:33:21;;;;;;;30.23;27.33;;;20.30;99.90;;;;;;5020515;28;20107;-78
2022/07/21 05:35:47;;;;;;;30.92;28.17;;;20.30;99.90;;;;;;5015708;28;20056;-78
2022/07/21 05:38:12;;;;;;;31.38;27.92;;;20.40;99.90;;;;;;5018330;28;20732;-78
2022/07/21 05:40:38;;;;;;;28.60;25.80;;;20.30;99.90;;;;;;5022279;28;20417;-79
2022/07/21 05:43:04;;;;;;;29.70;26.77;;;20.30;99.90;;;;;;5019429;28;20128;-78
2022/07/21 05:45:29;;;;;;;28.27;25.63;;;20.30;99.90;;;;;;5021964;28;20042;-79
2022/07/21 05:47:55;;;;;;;28.50;25.42;;;20.40;99.90;;;;;;5005332;28;20088;-79
2022/07/21 05:50:20;;;;;;;29.13;26.30;;;20.30;99.90;;;;;;5021238;28;20088;-79
2022/07/21 05:52:46;;;;;;;26.17;23.85;;;20.60;99.90;;;;;;5019165;28;20052;-78
2022/07/21 05:55:12;;;;;;;26.52;24.00;;;20.50;99.90;;;;;;5024091;28;20050;-78
2022/07/21 05:57:38;;;;;;;25.63;23.08;;;20.50;99.90;;;;;;5025587;28;20065;-78
2022/07/21 06:00:05;;;;;;;24.00;21.75;;;20.60;99.90;;;;;;5004191;28;20049;-79
2022/07/21 06:02:31;;;;;;;24.20;21.65;;;20.70;99.90;;;;;;5024101;28;20492;-79
2022/07/21 06:04:57;;;;;;;22.38;20.38;;;20.80;99.90;;;;;;5017061;28;20038;-79
2022/07/21 06:07:23;;;;;;;22.77;19.67;;;20.90;99.90;;;;;;5018364;28;20099;-79
2022/07/21 06:09:49;;;;;;;19.80;17.90;;;21.30;99.90;;;;;;5024099;28;20412;-79
2022/07/21 06:12:14;;;;;;;18.95;17.08;;;21.70;99.90;;;;;;5025330;28;20037;-79
2022/07/21 06:14:40;;;;;;;19.25;17.55;;;22.00;99.90;;;;;;5011082;28;20634;-78
2022/07/21 06:17:05;;;;;;;20.73;18.67;;;22.50;99.90;;;;;;5019048;28;20077;-79
2022/07/21 06:19:31;;;;;;;20.60;18.60;;;22.80;99.90;;;;;;5024172;28;20042;-79
2022/07/21 06:21:57;;;;;;;21.67;19.88;;;22.60;99.90;;;;;;5025835;28;20052;-78
2022/07/21 06:24:22;;;;;;;20.20;18.40;;;22.40;99.90;;;;;;5024029;28;20041;-78
2022/07/21 06:26:48;;;;;;;21.13;19.05;;;22.30;99.90;;;;;;5025889;28;20065;-78
2022/07/21 06:29:14;;;;;;;21.30;19.25;;;22.20;99.90;;;;;;5023942;28;20091;-78
2022/07/21 06:31:40;;;;;;;19.98;18.17;;;22.00;99.90;;;;;;5021190;28;20419;-78
2022/07/21 06:34:05;;;;;;;20.02;18.13;;;21.90;99.90;;;;;;5024083;28;20044;-78
2022/07/21 06:36:31;;;;;;;20.77;18.77;;;21.70;99.90;;;;;;5022156;28;20046;-79
2022/07/21 06:38:57;;;;;;;21.92;20.13;;;21.50;99.90;;;;;;5026929;28;20487;-79
2022/07/21 06:41:23;;;;;;;21.70;19.45;;;21.30;99.90;;;;;;5014057;28;20072;-79
2022/07/21 06:43:48;;;;;;;21.45;19.25;;;21.10;99.90;;;;;;5004314;28;20529;-79
2022/07/21 06:46:14;;;;;;;22.80;20.48;;;21.00;99.90;;;;;;5021945;28;20073;-79
2022/07/21 06:48:39;;;;;;;22.77;20.75;;;20.90;99.90;;;;;;5023037;28;20124;-78
2022/07/21 06:51:05;;;;;;;23.23;21.02;;;20.90;99.90;;;;;;5019414;28;20041;-79
2022/07/21 06:53:31;;;;;;;23.70;21.60;;;20.80;99.90;;;;;;5024501;28;20042;-78
2022/07/21 06:55:56;;;;;;;23.63;21.48;;;20.90;99.90;;;;;;5004948;28;20049;-78
2022/07/21 06:58:24;;;;;;;22.67;20.58;;;21.00;99.90;;;;;;5021130;28;20073;-78
2022/07/21 07:00:51;;;;;;;23.20;21.20;;;21.10;99.90;;;;;;5020765;28;20052;-78
2022/07/21 07:03:18;;;;;;;23.95;21.83;;;21.10;99.90;;;;;;5018449;28;20044;-78
2022/07/21 07:05:45;;;;;;;23.95;21.95;;;21.10;99.90;;;;;;5014068;28;20934;-78
2022/07/21 07:08:11;;;;;;;22.77;20.67;;;21.10;99.90;;;;;;5025426;28;20507;-78
2022/07/21 07:10:36;;;;;;;24.05;21.85;;;21.00;99.90;;;;;;5008129;28;20039;-79
2022/07/21 07:13:03;;;;;;;25.58;23.35;;;20.90;99.90;;;;;;5018225;28;20120;-78
2022/07/21 07:15:29;;;;;;;25.85;23.30;;;20.90;99.90;;;;;;5026218;28;20046;-79
2022/07/21 07:17:55;;;;;;;25.90;23.45;;;20.90;99.90;;;;;;5019052;28;20503;-79
2022/07/21 07:20:20;;;;;;;26.13;23.67;;;20.90;99.90;;;;;;5022375;28;20123;-79
2022/07/21 07:22:46;;;;;;;26.17;23.85;;;20.80;99.90;;;;;;5021051;28;20033;-79
2022/07/21 07:25:16;;;;;;;26.17;23.88;;;20.90;99.90;;;;;;5006010;28;20719;-78
2022/07/21 07:27:43;;;;;;;25.27;23.10;;;21.00;99.90;;;;;;5024842;28;20120;-79
2022/07/21 07:30:09;;;;;;;27.58;24.98;;;21.10;99.90;;;;;;5026914;28;20064;-79
2022/07/21 07:32:34;;;;;;;26.23;23.85;;;21.20;99.90;;;;;;5000445;28;20080;-79
2022/07/21 07:35:00;;;;;;;27.80;23.80;;;21.20;99.90;;;;;;5018498;28;20080;-79
2022/07/21 07:37:25;;;;;;;25.35;22.75;;;21.20;99.90;;;;;;5014420;28;20048;-79
2022/07/21 07:39:51;;;;;;;25.55;23.30;;;21.20;99.90;;;;;;5010426;28;20041;-79
2022/07/21 07:42:17;;;;;;;27.70;25.30;;;21.30;99.90;;;;;;4997158;28;20037;-79
2022/07/21 07:44:42;;;;;;;26.77;24.38;;;21.30;99.90;;;;;;5009147;28;20053;-79
2022/07/21 07:47:08;;;;;;;26.15;23.75;;;21.40;99.90;;;;;;5029076;28;20030;-79
2022/07/21 07:49:33;;;;;;;25.75;23.27;;;21.50;99.90;;;;;;5013682;28;20511;-79
2022/07/21 07:51:59;;;;;;;27.50;24.90;;;21.50;99.90;;;;;;5020004;28;20045;-79
2022/07/21 07:54:24;;;;;;;26.70;24.10;;;21.50;99.90;;;;;;5028189;28;20045;-79
2022/07/21 07:56:50;;;;;;;26.92;24.25;;;21.50;99.90;;;;;;5027102;28;20124;-78
2022/07/21 07:59:16;;;;;;;27.00;24.40;;;21.50;99.90;;;;;;5015588;28;20454;-78
2022/07/21 08:01:42;;;;;;;29.27;26.73;;;21.50;99.90;;;;;;5025179;28;20120;-80
2022/07/21 08:04:07;;;;;;;28.17;25.67;;;21.50;99.90;;;;;;5012487;28;20046;-79
2022/07/21 08:06:33;;;;;;;28.15;25.50;;;21.60;99.90;;;;;;5023933;28;20125;-79
2022/07/21 08:08:59;;;;;;;27.10;24.75;;;21.70;99.90;;;;;;5019101;28;20065;-79
2022/07/21 08:11:24;;;;;;;29.40;26.60;;;21.80;99.90;;;;;;5027485;28;20120;-79
2022/07/21 08:13:51;;;;;;;28.00;24.83;;;21.90;99.90;;;;;;5013651;28;20121;-79
2022/07/21 08:16:16;;;;;;;29.20;26.38;;;22.00;99.90;;;;;;5021432;28;20052;-79
2022/07/21 08:18:43;;;;;;;28.33;25.67;;;22.10;99.90;;;;;;5026736;28;20781;-79
2022/07/21 08:21:09;;;;;;;28.25;25.75;;;22.10;99.90;;;;;;5004182;28;20179;-80
2022/07/21 08:23:35;;;;;;;27.60;25.02;;;22.20;99.90;;;;;;5027684;28;20036;-80
2022/07/21 08:26:01;;;;;;;29.20;26.60;;;22.20;99.90;;;;;;5019901;28;20033;-80
2022/07/21 08:28:27;;;;;;;30.20;27.48;;;22.30;99.90;;;;;;5026825;28;20523;-80
2022/07/21 08:30:52;;;;;;;27.17;24.48;;;22.40;99.90;;;;;;5025846;28;20081;-80
2022/07/21 08:33:18;;;;;;;27.50;25.05;;;22.60;99.90;;;;;;5026237;28;20045;-79
2022/07/21 08:35:44;;;;;;;27.17;24.33;;;22.80;99.90;;;;;;5030118;28;20125;-81
2022/07/21 08:38:11;;;;;;;26.55;24.05;;;23.00;99.90;;;;;;5026183;28;20160;-79
2022/07/21 08:48:19;;;;;;;27.35;24.52;;;23.30;99.90;;;;;;5029343;28;20661;-80
2022/07/21 08:50:54;;;;;;;;;;;23.30;99.90;;;;;;5017618;28;20068;-81
2022/07/21 08:53:31;;;;;;;28.20;25.63;;;23.40;99.90;;;;;;5026338;28;20392;-80
2022/07/21 08:56:07;;;;;;;28.75;26.15;;;23.70;99.90;;;;;;4989006;28;20054;-79
2022/07/21 08:59:06;;;;;;;27.50;24.55;;;23.30;99.90;;;;;;5014642;28;20045;-79
2022/07/21 09:02:13;;;;;;;26.55;24.35;;;23.40;99.90;;;;;;5003113;28;20054;-80
2022/07/21 09:05:24;;;;;;;26.95;24.33;;;23.60;99.90;;;;;;4993911;28;20033;-81
2022/07/21 09:08:45;;;;;;;27.92;25.40;;;24.00;99.90;;;;;;4909725;28;20129;-81
2022/07/21 09:12:30;;;;;;;27.58;24.77;;;24.30;99.90;;;;;;4983569;28;20068;-80
2022/07/21 09:15:39;;;;;;;26.10;23.70;;;24.80;99.90;;;;;;4992215;28;20054;-80
2022/07/21 09:34:00;;;;;;;30.88;27.83;;;23.80;99.90;;;;;;5025838;28;20057;-80
2022/07/21 09:38:12;;;;;;;;;;;;;;;;;;;;;
2022/07/21 09:41:42;;;;;;;;;;;;;;;;;;;;;
2022/07/21 09:44:09;;;;;;;31.27;28.35;;;23.10;99.90;;;;;;4977130;28;20054;-81
2022/07/21 09:46:34;;;;;;;36.05;30.58;;;23.00;99.90;;;;;;4977467;28;20049;-80
2022/07/21 09:49:02;;;;;;;33.40;30.20;;;22.90;99.90;;;;;;5007749;28;20506;-80
2022/07/21 09:51:33;;;;;;;32.97;29.67;;;22.90;99.90;;;;;;5020162;28;20460;-80
2022/07/21 09:54:08;;;;;;;31.40;28.50;;;22.70;99.90;;;;;;5031063;28;20045;-80
2022/07/21 09:56:36;;;;;;;31.30;28.33;;;22.70;99.90;;;;;;5007627;28;20117;-80
2022/07/21 09:59:04;;;;;;;31.90;28.90;;;22.60;99.90;;;;;;5019293;28;20663;-80
2022/07/21 10:01:30;;;;;;;33.60;30.10;;;22.50;99.90;;;;;;5029121;28;20045;-80
2022/07/21 10:03:57;;;;;;;31.40;28.40;;;22.40;99.90;;;;;;5019970;28;20037;-80
2022/07/21 10:06:28;;;;;;;29.65;26.80;;;22.30;99.90;;;;;;5016799;28;20055;-80
2022/07/21 10:08:56;;;;;;;29.48;26.58;;;22.20;99.90;;;;;;5027261;28;20048;-80
2022/07/21 10:11:22;;;;;;;34.63;31.23;;;22.10;99.90;;;;;;5035436;28;20056;-81
2022/07/21 10:13:48;;;;;;;35.75;32.28;;;22.10;99.90;;;;;;5034584;28;20048;-80
2022/07/21 10:16:15;;;;;;;39.78;35.45;;;22.00;99.90;;;;;;5013101;28;20046;-80
2022/07/21 10:19:00;;;;;;;34.88;31.45;;;22.00;99.90;;;;;;5038994;28;20052;-80
2022/07/21 10:21:54;;;;;;;36.20;32.50;;;22.00;99.90;;;;;;5037969;28;20044;-80
2022/07/21 10:24:20;;;;;;;35.33;31.83;;;21.90;99.90;;;;;;5025681;28;20045;-80
2022/07/21 10:27:06;;;;;;;34.80;31.23;;;22.00;99.90;;;;;;5023227;28;20091;-80
2022/07/21 10:29:47;;;;;;;34.72;31.30;;;22.00;99.90;;;;;;5029782;28;20050;-80
2022/07/21 10:32:15;;;;;;;35.38;31.83;;;21.90;99.90;;;;;;5034238;28;20073;-80
2022/07/21 10:34:42;;;;;;;34.08;30.73;;;21.90;99.90;;;;;;5017573;28;20100;-80
2022/07/21 10:37:08;;;;;;;37.03;33.33;;;21.90;99.90;;;;;;5022006;28;20095;-80
2022/07/21 10:39:34;;;;;;;34.45;31.02;;;21.90;99.90;;;;;;5037071;28;20041;-80
2022/07/21 10:42:14;;;;;;;34.88;31.52;;;21.90;99.90;;;;;;5002612;28;20045;-80
2022/07/21 10:44:44;;;;;;;36.40;32.88;;;21.90;99.90;;;;;;5028944;28;20045;-80
2022/07/21 10:47:20;;;;;;;34.25;30.75;;;21.90;99.90;;;;;;5019924;28;20033;-80
2022/07/21 10:50:00;;;;;;;34.40;31.00;;;22.10;99.90;;;;;;5021048;28;20084;-80
2022/07/21 10:52:35;;;;;;;32.00;28.88;;;22.10;99.90;;;;;;5036785;28;20046;-80
2022/07/21 10:55:09;;;;;;;34.75;31.27;;;22.10;99.90;;;;;;5034782;28;20040;-80
2022/07/21 10:57:40;;;;;;;32.97;29.80;;;22.10;99.90;;;;;;5021341;28;20103;-81
2022/07/21 11:00:16;;;;;;;34.35;30.75;;;22.20;99.90;;;;;;5020131;28;20045;-80
2022/07/21 11:02:42;;;;;;;32.38;29.05;;;22.30;99.90;;;;;;5018589;28;20046;-80
2022/07/21 11:05:08;;;;;;;32.75;29.30;;;22.40;99.90;;;;;;5020649;28;20088;-80
2022/07/21 11:08:09;;;;;;;30.90;27.55;;;22.40;99.90;;;;;;5019028;28;20098;-80
2022/07/21 11:10:36;;;;;;;31.70;28.48;;;22.50;99.90;;;;;;5020582;28;20091;-80
2022/07/21 11:13:02;;;;;;;28.50;25.88;;;22.60;99.90;;;;;;5021866;28;20073;-80
2022/07/21 11:15:47;;;;;;;31.10;28.30;;;22.70;99.90;;;;;;5018284;28;20049;-80
2022/07/21 11:18:24;;;;;;;28.73;26.02;;;22.80;99.90;;;;;;5018233;28;20045;-80
2022/07/21 11:21:12;;;;;;;28.88;25.98;;;23.00;99.90;;;;;;5020125;28;20037;-80
2022/07/21 11:23:45;;;;;;;27.45;24.60;;;23.10;99.90;;;;;;5037653;28;20063;-80
2022/07/21 11:26:13;;;;;;;26.33;23.92;;;23.20;99.90;;;;;;5027052;28;20077;-80
2022/07/21 11:28:39;;;;;;;28.50;25.60;;;23.30;99.90;;;;;;5037473;28;20050;-80
2022/07/21 11:31:21;;;;;;;25.92;23.52;;;23.20;99.90;;;;;;5033392;28;20447;-80
2022/07/21 11:33:48;;;;;;;26.83;24.23;;;23.20;99.90;;;;;;5020178;28;20071;-81
2022/07/21 11:36:28;;;;;;;25.90;23.33;;;23.20;99.90;;;;;;5025712;28;20041;-80
2022/07/21 11:39:06;;;;;;;26.73;24.15;;;23.10;99.90;;;;;;5025848;28;20124;-80
2022/07/21 11:41:33;;;;;;;25.90;23.48;;;23.10;99.90;;;;;;5018934;28;20049;-80
2022/07/21 11:43:59;;;;;;;27.52;24.98;;;23.20;99.90;;;;;;5033262;28;20400;-80
2022/07/21 11:46:25;;;;;;;27.65;25.05;;;23.10;99.90;;;;;;5029853;28;20042;-81
2022/07/21 11:49:01;;;;;;;25.02;22.42;;;23.20;99.90;;;;;;5022193;28;20050;-80
2022/07/21 11:51:27;;;;;;;24.75;22.33;;;23.30;99.90;;;;;;5019735;28;20095;-80
2022/07/21 11:53:52;;;;;;;24.83;22.33;;;23.40;99.90;;;;;;5035432;28;20033;-80
2022/07/21 11:56:18;;;;;;;26.67;24.33;;;23.50;99.90;;;;;;5039671;28;20077;-81
2022/07/21 11:58:44;;;;;;;26.23;23.58;;;23.60;99.90;;;;;;5030899;28;20041;-80
2022/07/21 12:01:10;;;;;;;25.83;23.17;;;23.80;99.90;;;;;;5033252;28;20076;-80
2022/07/21 12:03:49;;;;;;;25.23;22.95;;;23.90;99.90;;;;;;5032466;28;20053;-80
2022/07/21 12:06:16;;;;;;;24.08;21.77;;;23.90;99.90;;;;;;5033024;28;20046;-80
2022/07/21 12:08:43;;;;;;;35.13;25.17;;;24.00;99.90;;;;;;5031677;28;20037;-80
2022/07/21 12:11:12;;;;;;;28.17;25.67;;;23.90;99.90;;;;;;5026101;28;20060;-80
2022/07/21 12:13:57;;;;;;;25.80;23.35;;;23.90;99.90;;;;;;5031646;28;20519;-80
2022/07/21 12:16:24;;;;;;;24.15;21.55;;;24.00;99.90;;;;;;5016217;28;20055;-80
2022/07/21 12:19:05;;;;;;;23.17;21.10;;;23.60;99.90;;;;;;5019368;28;20481;-80
2022/07/21 12:21:43;;;;;;;25.08;22.48;;;23.50;99.90;;;;;;5020174;28;20103;-80
2022/07/21 12:24:09;;;;;;;22.33;20.10;;;23.40;99.90;;;;;;5012900;28;20053;-80
2022/07/21 12:26:34;;;;;;;24.08;21.92;;;23.20;99.90;;;;;;5029082;28;20064;-80
2022/07/21 12:29:00;;;;;;;24.83;22.38;;;23.00;99.90;;;;;;5028320;28;20049;-80
2022/07/21 12:31:26;;;;;;;20.98;18.95;;;22.90;99.90;;;;;;5028522;28;20056;-80
2022/07/21 12:33:55;;;;;;;19.40;17.45;;;22.80;99.90;;;;;;5030927;28;20046;-80
2022/07/21 12:36:21;;;;;;;19.67;17.05;;;22.80;99.90;;;;;;5029992;28;20037;-79
2022/07/21 12:38:50;;;;;;;19.52;17.58;;;22.50;99.90;;;;;;5009813;28;20049;-80
2022/07/21 12:41:18;;;;;;;23.23;19.05;;;22.40;99.90;;;;;;5029711;28;20069;-80
2022/07/21 12:43:54;;;;;;;25.67;20.77;;;22.20;99.90;;;;;;5021917;28;20449;-80
2022/07/21 12:46:20;;;;;;;24.52;19.40;;;22.00;99.90;;;;;;5026195;28;20072;-80
2022/07/21 12:48:46;;;;;;;26.48;15.38;;;21.80;99.90;;;;;;5011907;28;20046;-79
2022/07/21 12:51:23;;;;;;;11.88;10.50;;;21.70;99.90;;;;;;5013605;28;20418;-80
2022/07/21 12:53:54;;;;;;;10.00;9.00;;;21.60;99.90;;;;;;5026926;28;20046;-80
2022/07/21 12:56:31;;;;;;;9.02;7.72;;;21.50;99.90;;;;;;5027727;28;20053;-79
2022/07/21 12:58:58;;;;;;;9.88;8.63;;;21.40;99.90;;;;;;5025945;28;20053;-80
2022/07/21 13:01:25;;;;;;;9.02;8.10;;;21.30;99.90;;;;;;5028961;28;20045;-80
2022/07/21 13:03:52;;;;;;;8.45;7.65;;;21.30;99.90;;;;;;5011778;28;20051;-80
2022/07/21 13:06:17;;;;;;;7.75;6.95;;;21.30;99.90;;;;;;5026861;28;20149;-80